Time;durP1;ratioP1;P1;durP2;ratioP2;P2;SDS_P1;SDS_P2;PMS_P1;PMS_P2;Temp;Humidity;BMP_temperature;BMP_pressure;BME280_temperature;BME280_humidity;BME280_pressure;Samples;Min_cycle;Max_cycle;Signal;HPM_P1;HPM_P2
2023/02/08 00:00:43;;;;;;;;;;;;;;;26.28;36.83;95601.84;5031861;28;8781;-63
2023/02/08 00:03:13;;;;;;;;;;;;;;;26.24;37.51;95592.28;5037337;28;9291;-63
2023/02/08 00:05:40;;;;;;;;;;;;;;;26.28;37.29;95601.09;5023650;28;8919;-63
2023/02/08 00:08:09;;;;;;;;;;;;;;;26.26;37.10;95590.56;5050414;28;7068;-63
2023/02/08 00:10:36;;;;;;;;;;;;;;;26.26;37.35;95595.31;5024156;28;7859;-63
2023/02/08 00:13:15;;;;;;;;;;;;;;;26.26;36.73;95584.28;5039874;28;7645;-63
2023/02/08 00:15:45;;;;;;;;;;;;;;;26.25;36.71;95586.31;5027145;28;7263;-63
2023/02/08 00:18:15;;;;;;;;;;;;;;;26.26;37.74;95587.03;5036271;28;8986;-62
2023/02/08 00:20:42;;;;;;;;;;;;;;;26.23;37.34;95579.75;5037918;28;7272;-63
2023/02/08 00:23:10;;;;;;;;;;;;;;;26.24;37.42;95573.75;5038206;28;7330;-63
2023/02/08 00:25:36;;;;;;;;;;;;;;;26.24;37.36;95570.97;5047065;28;8968;-63
2023/02/08 00:28:03;;;;;;;;;;;;;;;26.25;37.22;95569.75;5046235;28;8083;-63
2023/02/08 00:30:34;;;;;;;;;;;;;;;26.24;37.15;95565.47;5033819;28;9164;-63
2023/02/08 00:33:01;;;;;;;;;;;;;;;26.24;37.40;95559.94;5034141;28;9336;-63
2023/02/08 00:35:27;;;;;;;;;;;;;;;26.25;37.60;95563.47;5032995;28;7267;-63
2023/02/08 00:37:55;;;;;;;;;;;;;;;26.25;37.15;95558.72;5018511;28;8714;-63
2023/02/08 00:40:28;;;;;;;;;;;;;;;26.27;37.04;95564.50;5036204;28;7053;-63
2023/02/08 00:42:55;;;;;;;;;;;;;;;26.27;37.08;95552.72;5031271;28;7265;-63
2023/02/08 00:45:34;;;;;;;;;;;;;;;26.27;37.17;95556.22;5043917;28;7887;-63
2023/02/08 00:48:01;;;;;;;;;;;;;;;26.27;37.59;95559.00;5042525;28;7108;-63
2023/02/08 00:51:13;;;;;;;;;;;;;;;26.28;36.72;95554.97;5044963;28;8662;-63
2023/02/08 00:53:46;;;;;;;;;;;;;;;26.25;36.60;95547.69;5050709;28;7615;-63
2023/02/08 00:56:25;;;;;;;;;;;;;;;26.26;37.53;95548.41;5028942;28;7277;-63
2023/02/08 00:58:53;;;;;;;;;;;;;;;26.26;37.23;95546.44;5031913;28;7261;-63
2023/02/08 01:01:21;;;;;;;;;;;;;;;26.25;37.59;95539.41;5047265;28;7312;-63
2023/02/08 01:03:47;;;;;;;;;;;;;;;26.27;37.18;95544.44;5043973;28;7019;-63
2023/02/08 01:06:16;;;;;;;;;;;;;;;26.25;37.06;95538.66;5028183;28;7042;-63
2023/02/08 01:08:45;;;;;;;;;;;;;;;26.22;36.82;95531.34;5021272;28;9396;-63
2023/02/08 01:11:21;;;;;;;;;;;;;;;26.22;37.18;95534.88;5046375;28;7294;-63
2023/02/08 01:13:48;;;;;;;;;;;;;;;26.21;37.41;95527.09;5022189;28;8985;-63
2023/02/08 01:16:17;;;;;;;;;;;;;;;26.22;37.45;95528.59;5034796;28;7104;-63
2023/02/08 01:18:56;;;;;;;;;;;;;;;26.20;37.04;95522.81;5021601;28;7024;-63
2023/02/08 01:21:31;;;;;;;;;;;;;;;26.21;37.41;95530.56;5036281;28;7038;-63
2023/02/08 01:24:04;;;;;;;;;;;;;;;26.20;37.73;95522.81;5035415;28;9158;-63
2023/02/08 01:26:37;;;;;;;;;;;;;;;26.20;37.15;95517.28;5043522;28;7362;-63
2023/02/08 01:29:06;;;;;;;;;;;;;;;26.21;36.92;95521.56;5042774;28;7446;-63
2023/02/08 01:31:42;;;;;;;;;;;;;;;26.21;37.86;95516.78;5045886;28;7017;-63
2023/02/08 01:34:38;;;;;;;;;;;;;;;26.21;37.71;95516.06;5045630;28;9180;-63
2023/02/08 01:37:04;;;;;;;;;;;;;;;26.19;37.67;95513.75;4978140;28;9010;-63
2023/02/08 01:39:42;;;;;;;;;;;;;;;26.19;37.42;95508.25;4963660;28;7616;-63
2023/02/08 01:42:20;;;;;;;;;;;;;;;26.21;37.79;95507.78;4986146;28;7763;-63
2023/02/08 01:45:26;;;;;;;;;;;;;;;26.21;37.43;95507.78;4977043;28;7008;-63
2023/02/08 01:48:06;;;;;;;;;;;;;;;26.21;36.92;95502.25;4973384;28;8913;-63
2023/02/08 01:51:03;;;;;;;;;;;;;;;26.22;37.47;95501.00;4976239;28;9073;-63
2023/02/08 01:53:42;;;;;;;;;;;;;;;26.21;37.06;95503.00;4981814;28;7033;-63
2023/02/08 01:56:22;;;;;;;;;;;;;;;26.18;36.92;95501.25;4980334;28;7204;-63
2023/02/08 01:59:16;;;;;;;;;;;;;;;26.20;37.74;95503.50;4974439;28;7329;-63
2023/02/08 02:01:46;;;;;;;;;;;;;;;26.19;37.53;95502.00;4980313;28;7202;-63
2023/02/08 02:05:01;;;;;;;;;;;;;;;26.21;37.00;95499.50;4982086;28;7604;-63
2023/02/08 02:07:30;;;;;;;;;;;;;;;26.19;37.49;95497.22;4973435;28;9068;-63
2023/02/08 02:10:20;;;;;;;;;;;;;;;26.19;37.31;95496.47;4964072;28;6864;-63
2023/02/08 02:12:53;;;;;;;;;;;;;;;26.16;37.59;95492.69;4999227;28;8597;-63
2023/02/08 02:15:25;;;;;;;;;;;;;;;26.19;37.30;95491.69;5036069;28;7375;-63
2023/02/08 02:17:54;;;;;;;;;;;;;;;26.19;37.41;95493.72;5039809;28;9380;-63
2023/02/08 02:21:07;;;;;;;;;;;;;;;26.20;37.50;95489.72;5037203;28;7136;-63
2023/02/08 02:24:16;;;;;;;;;;;;;;;26.19;37.46;95486.19;5039380;28;8157;-63
2023/02/08 02:26:46;;;;;;;;;;;;;;;26.19;37.01;95490.97;5040147;28;7334;-63
2023/02/08 02:29:30;;;;;;;;;;;;;;;26.19;37.07;95485.44;5034420;28;7801;-63
2023/02/08 02:32:19;;;;;;;;;;;;;;;26.17;37.51;95486.69;5043725;28;8578;-63
2023/02/08 02:35:03;;;;;;;;;;;;;;;26.16;37.72;95476.16;5043034;28;7038;-63
2023/02/08 02:37:58;;;;;;;;;;;;;;;26.18;37.32;95484.69;5035669;28;7015;-63
2023/02/08 02:40:34;;;;;;;;;;;;;;;26.15;37.60;95475.38;5030853;28;7073;-63
2023/02/08 02:43:48;;;;;;;;;;;;;;;26.16;37.41;95474.13;5051347;28;7992;-63
2023/02/08 02:47:05;;;;;;;;;;;;;;;26.16;37.92;95470.63;4970152;28;7902;-62
2023/02/08 02:50:10;;;;;;;;;;;;;;;26.16;37.44;95476.88;4882266;29;7146;-63
2023/02/08 02:53:21;;;;;;;;;;;;;;;26.15;37.59;95469.88;4892085;29;8603;-63
2023/02/08 02:56:04;;;;;;;;;;;;;;;26.15;37.51;95472.63;4872508;29;7311;-63
2023/02/08 02:58:34;;;;;;;;;;;;;;;26.15;37.10;95472.63;4886028;29;9323;-63
2023/02/08 03:01:24;;;;;;;;;;;;;;;26.14;37.72;95473.88;4892649;29;8994;-63
2023/02/08 03:04:35;;;;;;;;;;;;;;;26.15;37.14;95475.38;4898168;29;9360;-63
2023/02/08 03:07:20;;;;;;;;;;;;;;;26.15;37.69;95469.09;4889921;29;7672;-63
2023/02/08 03:09:52;;;;;;;;;;;;;;;26.16;38.22;95473.41;4888264;29;7274;-63
2023/02/08 03:12:43;;;;;;;;;;;;;;;26.15;37.22;95474.63;4883994;29;7201;-63
2023/02/08 03:15:44;;;;;;;;;;;;;;;26.13;36.95;95471.59;4893030;29;7105;-63
2023/02/08 03:18:22;;;;;;;;;;;;;;;26.12;36.95;95470.84;4897189;29;7072;-65
2023/02/08 03:21:05;;;;;;;;;;;;;;;26.14;37.76;95468.34;4898602;29;7334;-65
2023/02/08 03:24:06;;;;;;;;;;;;;;;26.14;37.50;95471.09;4956073;28;7040;-65
2023/02/08 03:26:35;;;;;;;;;;;;;;;26.16;37.90;95465.84;5042453;28;7277;-66
2023/02/08 03:29:16;;;;;;;;;;;;;;;26.15;37.13;95464.34;5032852;28;8007;-65
2023/02/08 03:31:46;;;;;;;;;;;;;;;26.14;37.36;95457.31;5043893;28;7039;-66
2023/02/08 03:34:25;;;;;;;;;;;;;;;26.13;37.06;95460.56;5048012;28;8967;-65
2023/02/08 03:37:07;;;;;;;;;;;;;;;26.14;37.41;95462.84;5030082;28;7242;-65
2023/02/08 03:39:39;;;;;;;;;;;;;;;26.11;37.70;95463.81;5030146;28;7341;-66
2023/02/08 03:42:18;;;;;;;;;;;;;;;26.14;37.50;95468.34;5028476;28;7243;-65
2023/02/08 03:45:14;;;;;;;;;;;;;;;26.14;37.73;95468.34;5037881;28;7046;-65
2023/02/08 03:47:47;;;;;;;;;;;;;;;26.14;37.18;95467.63;5040070;28;9131;-65
2023/02/08 03:50:19;;;;;;;;;;;;;;;26.14;37.41;95462.84;5033165;28;7117;-65
2023/02/08 03:52:48;;;;;;;;;;;;;;;26.13;37.02;95460.56;5036120;28;9325;-63
2023/02/08 03:55:22;;;;;;;;;;;;;;;26.13;37.49;95466.84;5033117;28;8936;-63
2023/02/08 03:58:10;;;;;;;;;;;;;;;26.13;37.27;95461.34;5023138;28;9431;-65
2023/02/08 04:00:43;;;;;;;;;;;;;;;26.11;37.12;95455.56;5030409;28;7258;-65
2023/02/08 04:03:19;;;;;;;;;;;;;;;26.12;37.19;95465.31;5031224;28;9123;-65
2023/02/08 04:05:46;;;;;;;;;;;;;;;26.12;37.22;95465.31;5030715;28;7954;-65
2023/02/08 04:08:12;;;;;;;;;;;;;;;26.12;37.51;95459.81;5044682;28;7318;-65
2023/02/08 04:10:52;;;;;;;;;;;;;;;26.15;37.61;95464.34;5022231;28;7029;-65
2023/02/08 04:13:20;;;;;;;;;;;;;;;26.14;37.09;95462.84;5048524;28;9362;-65
2023/02/08 04:15:49;;;;;;;;;;;;;;;26.11;37.23;95463.81;5025570;28;7220;-65
2023/02/08 04:18:15;;;;;;;;;;;;;;;26.11;37.72;95460.31;5027388;28;9167;-64
2023/02/08 04:20:43;;;;;;;;;;;;;;;26.11;37.47;95458.31;5034217;28;7022;-64
2023/02/08 04:23:09;;;;;;;;;;;;;;;26.11;37.21;95468.59;5040924;28;7081;-65
2023/02/08 04:25:36;;;;;;;;;;;;;;;26.12;37.17;95465.31;5025645;28;7264;-64
2023/02/08 04:28:05;;;;;;;;;;;;;;;26.12;37.46;95459.81;5031362;28;7036;-64
2023/02/08 04:30:52;;;;;;;;;;;;;;;26.10;37.60;95454.03;5030789;28;6889;-64
2023/02/08 04:33:28;;;;;;;;;;;;;;;26.12;36.95;95451.53;5051443;28;7300;-64
2023/02/08 04:36:22;;;;;;;;;;;;;;;26.12;36.98;95448.78;5042271;28;7183;-64
2023/02/08 04:38:56;;;;;;;;;;;;;;;26.12;37.20;95437.00;5030609;28;7866;-65
2023/02/08 04:41:24;;;;;;;;;;;;;;;26.09;37.13;95437.97;5028079;28;7320;-65
2023/02/08 04:43:55;;;;;;;;;;;;;;;26.11;36.58;95444.53;5030135;28;7061;-65
2023/02/08 04:46:21;;;;;;;;;;;;;;;26.11;36.95;95444.53;5030144;28;7861;-65
2023/02/08 04:48:54;;;;;;;;;;;;;;;26.11;36.98;95438.25;5031517;28;7022;-65
2023/02/08 04:51:20;;;;;;;;;;;;;;;26.10;37.66;95437.50;5026554;28;7305;-65
2023/02/08 04:53:56;;;;;;;;;;;;;;;26.10;37.80;95437.50;5028011;28;8988;-65
2023/02/08 04:56:24;;;;;;;;;;;;;;;26.11;37.77;95432.72;5025147;28;8872;-65
2023/02/08 04:59:20;;;;;;;;;;;;;;;26.10;37.71;95437.50;5036070;28;7245;-65
2023/02/08 05:02:01;;;;;;;;;;;;;;;26.09;36.92;95438.75;4936079;28;7247;-65
2023/02/08 05:05:13;;;;;;;;;;;;;;;26.09;37.84;95438.75;4939638;28;7044;-65
2023/02/08 05:07:53;;;;;;;;;;;;;;;26.10;37.44;95431.22;4953232;28;8090;-65
2023/02/08 05:10:35;;;;;;;;;;;;;;;26.10;37.19;95431.22;4953775;28;7043;-65
2023/02/08 05:13:18;;;;;;;;;;;;;;;26.09;37.58;95430.47;4953806;28;7215;-65
2023/02/08 05:16:13;;;;;;;;;;;;;;;26.08;37.85;95431.72;4954204;28;7242;-65
2023/02/08 05:19:02;;;;;;;;;;;;;;;26.09;37.60;95427.72;4896907;29;7089;-65
2023/02/08 05:21:28;;;;;;;;;;;;;;;26.09;37.61;95426.97;4898609;29;9036;-65
2023/02/08 05:24:04;;;;;;;;;;;;;;;26.07;37.40;95432.94;4896416;29;9089;-65
2023/02/08 05:26:32;;;;;;;;;;;;;;;26.07;37.64;95430.19;4893978;29;9129;-65
2023/02/08 05:29:08;;;;;;;;;;;;;;;26.07;37.96;95430.19;4879562;29;7021;-65
2023/02/08 05:31:43;;;;;;;;;;;;;;;26.06;37.22;95428.66;4890318;29;7305;-65
2023/02/08 05:34:16;;;;;;;;;;;;;;;26.07;37.21;95432.94;4893908;29;9358;-65
2023/02/08 05:36:55;;;;;;;;;;;;;;;26.06;37.76;95434.16;4895336;29;8752;-65
2023/02/08 05:39:51;;;;;;;;;;;;;;;26.06;37.00;95439.69;5007130;28;8996;-65
2023/02/08 05:42:18;;;;;;;;;;;;;;;26.05;37.87;95437.44;4894660;29;9066;-65
2023/02/08 05:44:56;;;;;;;;;;;;;;;26.08;37.67;95447.47;4881096;29;7244;-64
2023/02/08 05:47:33;;;;;;;;;;;;;;;26.08;37.24;95441.94;4891939;29;7507;-64
2023/02/08 05:50:13;;;;;;;;;;;;;;;26.08;37.16;95439.19;4895353;29;7520;-64
2023/02/08 05:53:12;;;;;;;;;;;;;;;26.09;37.16;95447.03;4894346;29;7011;-64
2023/02/08 05:56:23;;;;;;;;;;;;;;;26.09;37.25;95449.00;4871771;29;7059;-64
2023/02/08 05:59:06;;;;;;;;;;;;;;;26.04;37.23;95447.69;4886876;29;7234;-65
2023/02/08 06:01:32;;;;;;;;;;;;;;;26.07;38.05;95451.47;4898929;29;9057;-65
2023/02/08 06:04:18;;;;;;;;;;;;;;;26.09;38.24;95458.03;4891080;29;7241;-65
2023/02/08 06:06:52;;;;;;;;;;;;;;;26.09;38.13;95452.53;4884211;29;8688;-65
2023/02/08 06:09:19;;;;;;;;;;;;;;;26.10;37.78;95454.03;4882141;29;7213;-65
2023/02/08 06:11:48;;;;;;;;;;;;;;;26.10;37.74;95456.03;4883190;29;7498;-65
2023/02/08 06:14:25;;;;;;;;;;;;;;;26.10;38.07;95464.28;4877744;29;7022;-65
2023/02/08 06:17:03;;;;;;;;;;;;;;;26.09;38.09;95463.56;4882981;29;7198;-64
2023/02/08 06:19:29;;;;;;;;;;;;;;;26.10;37.32;95467.81;4909801;28;7289;-65
2023/02/08 06:22:10;;;;;;;;;;;;;;;26.06;37.31;95461.75;4931550;29;8245;-64
2023/02/08 06:24:38;;;;;;;;;;;;;;;26.11;37.29;95480.38;4926533;28;7097;-64
2023/02/08 06:27:09;;;;;;;;;;;;;;;26.08;37.52;95475.81;4932307;28;8937;-64
2023/02/08 06:29:35;;;;;;;;;;;;;;;26.08;37.24;95480.53;4940615;28;8699;-65
2023/02/08 06:32:02;;;;;;;;;;;;;;;26.10;37.05;95483.59;5008461;28;7725;-65
2023/02/08 06:34:32;;;;;;;;;;;;;;;26.10;37.12;95483.59;5035664;28;9374;-65
2023/02/08 06:37:01;;;;;;;;;;;;;;;26.09;37.33;95482.88;5031417;28;7036;-64
2023/02/08 06:39:28;;;;;;;;;;;;;;;26.15;37.24;95491.94;5046798;28;9267;-65
2023/02/08 06:41:55;;;;;;;;;;;;;;;26.20;37.13;95489.72;5029782;28;7482;-65
2023/02/08 06:44:22;;;;;;;;;;;;;;;26.22;37.99;95501.78;5030394;28;8986;-65
2023/02/08 06:46:48;;;;;;;;;;;;;;;26.21;37.24;95502.25;5028520;28;7249;-65
2023/02/08 06:49:15;;;;;;;;;;;;;;;26.17;37.01;95491.44;5030056;28;7312;-65
2023/02/08 06:51:44;;;;;;;;;;;;;;;26.16;37.25;95495.47;5044226;28;7446;-65
2023/02/08 06:54:15;;;;;;;;;;;;;;;26.13;36.48;95490.91;5033137;28;7161;-65
2023/02/08 06:56:54;;;;;;;;;;;;;;;26.09;36.36;95493.88;5032081;28;9167;-65
2023/02/08 06:59:20;;;;;;;;;;;;;;;26.08;37.28;95486.84;5047144;28;9033;-65
2023/02/08 07:01:54;;;;;;;;;;;;;;;26.09;36.80;95496.66;5036784;28;9412;-65
2023/02/08 07:04:27;;;;;;;;;;;;;;;26.10;36.91;95494.63;5034958;28;8779;-65
2023/02/08 07:07:00;;;;;;;;;;;;;;;26.10;36.66;95492.63;5036220;28;9202;-65
2023/02/08 07:09:27;;;;;;;;;;;;;;;26.12;36.76;95487.38;5024187;28;7613;-64
2023/02/08 07:11:53;;;;;;;;;;;;;;;26.18;37.15;95492.97;5033596;28;7134;-65
2023/02/08 07:14:21;;;;;;;;;;;;;;;26.23;36.12;95499.78;5027792;28;9004;-64
2023/02/08 07:16:54;;;;;;;;;;;;;;;26.25;36.56;95497.28;5029550;28;8193;-64
2023/02/08 07:19:21;;;;;;;;;;;;;;;26.20;35.05;95490.47;5041174;28;7285;-64
2023/02/08 07:21:47;;;;;;;;;;;;;;;26.16;35.12;95498.22;5031530;28;6903;-63
2023/02/08 07:24:18;;;;;;;;;;;;;;;26.10;35.55;95508.41;5050029;28;8672;-64
2023/02/08 07:26:45;;;;;;;;;;;;;;;26.07;35.42;95512.13;5033251;28;7056;-64
2023/02/08 07:29:11;;;;;;;;;;;;;;;26.05;36.05;95509.88;5028849;28;9073;-64
2023/02/08 07:31:36;;;;;;;;;;;;;;;26.03;35.41;95515.09;5041021;28;9032;-64
2023/02/08 07:34:06;;;;;;;;;;;;;;;26.05;36.09;95514.63;5029660;28;8797;-64
2023/02/08 07:36:34;;;;;;;;;;;;;;;26.03;36.58;95519.88;5042898;28;7044;-65
2023/02/08 07:39:03;;;;;;;;;;;;;;;26.07;35.96;95512.13;5043639;28;7026;-65
2023/02/08 07:41:29;;;;;;;;;;;;;;;26.07;35.65;95514.88;5042357;28;9095;-65
2023/02/08 07:43:55;;;;;;;;;;;;;;;26.05;36.35;95515.38;5021980;28;7242;-65
2023/02/08 07:46:25;;;;;;;;;;;;;;;26.02;36.20;95516.34;5028198;28;9042;-65
2023/02/08 07:48:53;;;;;;;;;;;;;;;26.00;36.11;95518.84;5021750;28;9216;-65
2023/02/08 07:51:20;;;;;;;;;;;;;;;25.98;36.80;95509.53;5035188;28;9056;-65
2023/02/08 07:53:48;;;;;;;;;;;;;;;25.96;36.28;95515.53;5041523;28;7366;-65
2023/02/08 07:56:14;;;;;;;;;;;;;;;25.96;37.35;95523.81;5043873;28;8475;-65
2023/02/08 07:58:42;;;;;;;;;;;;;;;25.97;36.49;95524.53;5031878;28;8697;-65
2023/02/08 08:01:10;;;;;;;;;;;;;;;25.94;36.96;95522.78;5059063;28;9544;-65
2023/02/08 08:03:38;;;;;;;;;;;;;;;25.98;37.12;95521.31;5036793;28;7287;-65
2023/02/08 08:06:05;;;;;;;;;;;;;;;25.97;37.36;95528.06;5024755;28;9182;-65
2023/02/08 08:08:31;;;;;;;;;;;;;;;25.96;36.66;95523.81;5048331;28;9055;-65
2023/02/08 08:11:01;;;;;;;;;;;;;;;25.97;36.56;95530.81;5031302;28;8644;-64
2023/02/08 08:13:28;;;;;;;;;;;;;;;25.96;37.32;95532.09;5051652;28;7012;-64
2023/02/08 08:15:57;;;;;;;;;;;;;;;25.96;37.52;95537.59;5023354;28;7030;-64
2023/02/08 08:18:23;;;;;;;;;;;;;;;25.99;36.66;95544.16;5029633;28;9413;-65
2023/02/08 08:20:49;;;;;;;;;;;;;;;25.96;37.43;95537.59;5027944;28;9094;-64
2023/02/08 08:23:18;;;;;;;;;;;;;;;25.95;37.30;95549.84;5011804;28;7181;-64
2023/02/08 08:25:44;;;;;;;;;;;;;;;25.97;37.44;95546.59;5031873;28;9016;-64
2023/02/08 08:28:10;;;;;;;;;;;;;;;25.96;36.61;95545.09;5020658;28;7363;-64
2023/02/08 08:30:43;;;;;;;;;;;;;;;25.97;37.06;95547.38;5036042;28;9690;-64
2023/02/08 08:33:12;;;;;;;;;;;;;;;25.95;37.43;95544.34;5054813;28;9554;-65
2023/02/08 08:35:39;;;;;;;;;;;;;;;25.98;37.30;95545.38;5023531;28;7337;-64
2023/02/08 08:38:08;;;;;;;;;;;;;;;25.99;37.12;95553.16;5021456;28;7246;-64
2023/02/08 08:40:34;;;;;;;;;;;;;;;25.98;37.08;95548.91;5037568;28;7028;-64
2023/02/08 08:43:03;;;;;;;;;;;;;;;25.96;36.96;95550.63;5024185;28;9082;-64
2023/02/08 08:45:31;;;;;;;;;;;;;;;25.95;37.55;95551.84;5031631;28;8745;-64
2023/02/08 08:48:00;;;;;;;;;;;;;;;25.93;36.91;95552.34;5043222;28;7021;-64
2023/02/08 08:50:26;;;;;;;;;;;;;;;25.97;37.91;95561.16;5048136;28;7328;-64
2023/02/08 08:52:54;;;;;;;;;;;;;;;25.95;37.29;95551.84;5025541;28;9028;-65
2023/02/08 08:55:23;;;;;;;;;;;;;;;25.96;37.21;95556.88;5034391;28;7212;-64
2023/02/08 08:57:52;;;;;;;;;;;;;;;25.90;37.55;95545.03;5031792;28;7015;-64
2023/02/08 09:00:18;;;;;;;;;;;;;;;25.97;37.75;95554.88;5034478;28;7275;-65
2023/02/08 09:02:44;;;;;;;;;;;;;;;25.96;37.08;95550.63;5018235;28;9445;-65
2023/02/08 09:05:10;;;;;;;;;;;;;;;25.96;37.70;95545.88;5042884;28;7299;-65
2023/02/08 09:07:36;;;;;;;;;;;;;;;25.96;37.12;95547.84;5025911;28;9053;-65
2023/02/08 09:10:03;;;;;;;;;;;;;;;25.96;37.78;95561.63;5030563;28;6983;-65
2023/02/08 09:12:31;;;;;;;;;;;;;;;25.96;37.20;95556.13;5043585;28;8255;-65
2023/02/08 09:15:26;;;;;;;;;;;;;;;25.96;37.77;95551.38;5029652;28;7084;-65
2023/02/08 09:18:05;;;;;;;;;;;;;;;25.94;37.24;95547.59;4960058;28;7416;-64
2023/02/08 09:21:26;;;;;;;;;;;;;;;25.96;37.14;95551.38;4953874;28;7241;-65
2023/02/08 09:23:54;;;;;;;;;;;;;;;25.95;36.99;95551.84;4890147;29;8083;-64
2023/02/08 09:26:41;;;;;;;;;;;;;;;25.96;37.07;95556.13;4896634;29;7813;-64
2023/02/08 09:29:07;;;;;;;;;;;;;;;25.96;36.98;95556.88;4871890;29;7612;-65
2023/02/08 09:31:47;;;;;;;;;;;;;;;25.96;37.88;95556.88;4872389;29;9138;-65
2023/02/08 09:34:23;;;;;;;;;;;;;;;25.95;37.38;95566.38;4880509;29;7019;-65
2023/02/08 09:37:05;;;;;;;;;;;;;;;25.94;37.76;95559.38;4897224;29;7074;-65
2023/02/08 09:39:58;;;;;;;;;;;;;;;25.96;37.85;95558.88;4889082;29;7286;-65
2023/02/08 09:43:10;;;;;;;;;;;;;;;25.95;37.87;95558.13;4895818;29;7053;-65
2023/02/08 09:46:02;;;;;;;;;;;;;;;25.95;37.40;95549.09;4889438;29;8301;-65
2023/02/08 09:48:40;;;;;;;;;;;;;;;25.96;37.79;95554.13;4877556;29;9152;-65
2023/02/08 09:51:46;;;;;;;;;;;;;;;25.97;38.05;95565.91;4886422;29;9264;-65
2023/02/08 09:54:29;;;;;;;;;;;;;;;25.96;37.14;95561.63;4877916;29;7263;-65
2023/02/08 09:57:16;;;;;;;;;;;;;;;25.95;37.98;95551.84;4913002;29;9359;-65
2023/02/08 09:59:54;;;;;;;;;;;;;;;25.94;37.50;95553.09;4933535;28;9561;-65
2023/02/08 10:02:28;;;;;;;;;;;;;;;25.93;37.58;95551.56;4962675;28;7016;-65
2023/02/08 10:04:59;;;;;;;;;;;;;;;25.95;38.11;95555.38;4964089;28;7253;-65
2023/02/08 10:07:28;;;;;;;;;;;;;;;25.96;37.23;95556.88;4962620;28;9180;-65
2023/02/08 10:09:59;;;;;;;;;;;;;;;25.97;37.23;95557.63;4964236;28;9039;-65
2023/02/08 10:12:38;;;;;;;;;;;;;;;25.97;37.80;95554.88;4951588;28;7052;-65
2023/02/08 10:15:37;;;;;;;;;;;;;;;25.96;37.77;95556.88;4968453;28;8645;-65
2023/02/08 10:18:31;;;;;;;;;;;;;;;25.96;37.73;95558.88;4974647;28;9004;-65
2023/02/08 10:21:08;;;;;;;;;;;;;;;25.96;37.78;95554.13;4947007;28;9332;-65
2023/02/08 10:23:40;;;;;;;;;;;;;;;25.96;38.11;95548.63;4962769;28;9107;-65
2023/02/08 10:26:21;;;;;;;;;;;;;;;25.96;37.13;95558.88;4958520;28;9640;-65
2023/02/08 10:29:17;;;;;;;;;;;;;;;25.97;37.76;95568.66;5016607;28;7290;-64
2023/02/08 10:32:19;;;;;;;;;;;;;;;25.96;37.44;95562.41;5030179;28;9026;-65
2023/02/08 10:34:51;;;;;;;;;;;;;;;25.96;37.83;95556.13;5032415;28;7271;-64
2023/02/08 10:37:35;;;;;;;;;;;;;;;25.95;37.93;95560.13;5023684;28;9432;-64
2023/02/08 10:43:34;;;;;;;;;;;;;;;25.95;37.12;95555.38;5051467;28;7628;-65
2023/02/08 10:46:16;;;;;;;;;;;;;;;25.95;37.27;95554.59;5054013;28;8340;-65
2023/02/08 10:49:21;;;;;;;;;;;;;;;25.95;37.77;95555.38;5055226;28;7016;-65
2023/02/08 10:51:56;;;;;;;;;;;;;;;25.95;37.24;95551.84;5059468;28;9004;-65
2023/02/08 10:54:38;;;;;;;;;;;;;;;25.92;37.84;95550.84;5037065;28;9122;-65
2023/02/08 10:57:19;;;;;;;;;;;;;;;25.95;37.95;95543.56;5059591;28;9148;-64
2023/02/08 11:00:24;;;;;;;;;;;;;;;25.95;37.67;95544.34;5044121;28;7222;-64
2023/02/08 11:03:23;;;;;;;;;;;;;;;25.95;38.25;95549.84;5036486;28;9042;-64
2023/02/08 11:06:05;;;;;;;;;;;;;;;25.95;38.00;95544.34;5005670;28;7712;-65
2023/02/08 11:08:55;;;;;;;;;;;;;;;25.95;37.94;95538.06;4992908;28;7651;-64
2023/02/08 11:11:52;;;;;;;;;;;;;;;25.96;38.13;95543.09;4985930;28;7019;-65
2023/02/08 11:14:32;;;;;;;;;;;;;;;25.93;38.11;95535.78;4997714;28;7031;-65
2023/02/08 11:17:27;;;;;;;;;;;;;;;25.95;37.43;95538.81;4990989;28;9067;-65
2023/02/08 11:19:59;;;;;;;;;;;;;;;25.95;37.43;95541.59;4996521;28;7033;-65
2023/02/08 11:22:33;;;;;;;;;;;;;;;25.95;37.47;95541.59;5005535;28;7103;-64
2023/02/08 11:25:05;;;;;;;;;;;;;;;25.95;38.24;95538.81;5007238;28;9036;-64
2023/02/08 11:27:35;;;;;;;;;;;;;;;25.97;37.77;95546.59;4982233;28;7718;-64
2023/02/08 11:30:13;;;;;;;;;;;;;;;25.94;38.15;95533.81;4991941;28;9352;-64
2023/02/08 11:32:40;;;;;;;;;;;;;;;25.95;38.17;95533.31;5000049;28;7397;-64
2023/02/08 11:35:25;;;;;;;;;;;;;;;25.95;37.88;95535.31;5000915;28;7048;-64
2023/02/08 11:37:58;;;;;;;;;;;;;;;25.95;37.68;95535.31;4999716;28;8836;-64
2023/02/08 11:40:34;;;;;;;;;;;;;;;25.94;37.79;95529.06;4995376;28;9072;-65
2023/02/08 11:43:01;;;;;;;;;;;;;;;25.96;37.37;95539.59;5043114;28;7050;-64
2023/02/08 11:45:31;;;;;;;;;;;;;;;25.95;38.04;95547.09;5033318;28;8946;-64
2023/02/08 11:48:01;;;;;;;;;;;;;;;25.96;37.56;95536.84;5030528;28;7248;-64
2023/02/08 11:50:34;;;;;;;;;;;;;;;25.95;38.18;95527.03;5038523;28;7064;-64
2023/02/08 11:53:06;;;;;;;;;;;;;;;25.95;37.60;95529.78;5041044;28;9182;-64
2023/02/08 11:55:34;;;;;;;;;;;;;;;25.95;38.28;95527.81;5022258;28;7278;-65
2023/02/08 11:58:20;;;;;;;;;;;;;;;25.96;37.86;95523.06;5034926;28;7271;-64
2023/02/08 12:01:04;;;;;;;;;;;;;;;25.95;37.53;95524.28;5044146;28;7241;-65
2023/02/08 12:03:41;;;;;;;;;;;;;;;25.94;37.55;95511.75;5039379;28;7302;-65
2023/02/08 12:06:27;;;;;;;;;;;;;;;25.94;37.55;95514.50;5045874;28;9447;-65
2023/02/08 12:09:34;;;;;;;;;;;;;;;25.95;37.76;95519.53;5031350;28;9044;-65
2023/02/08 12:12:12;;;;;;;;;;;;;;;25.95;37.36;95518.75;5032069;28;8577;-65
2023/02/08 12:15:10;;;;;;;;;;;;;;;25.96;38.19;95512.78;5033309;28;8757;-65
2023/02/08 12:17:51;;;;;;;;;;;;;;;25.95;37.92;95516.78;5035248;28;9114;-64
2023/02/08 12:20:42;;;;;;;;;;;;;;;25.96;38.10;95517.53;5049825;28;7029;-64
2023/02/08 12:23:19;;;;;;;;;;;;;;;25.96;37.82;95518.31;5049253;28;9137;-64
2023/02/08 12:26:18;;;;;;;;;;;;;;;25.94;37.49;95509.75;5032356;28;7244;-64
2023/02/08 12:29:03;;;;;;;;;;;;;;;25.96;37.33;95509.25;5031928;28;7159;-64
2023/02/08 12:31:32;;;;;;;;;;;;;;;25.97;37.77;95499.75;5044564;28;9495;-64
2023/02/08 12:34:07;;;;;;;;;;;;;;;25.95;37.51;95500.22;5037027;28;9652;-65
2023/02/08 12:43:26;;;;;;;;;;;;;;;25.96;38.47;95481.69;5049127;28;9046;-64
2023/02/08 12:46:23;;;;;;;;;;;;;;;25.96;37.47;95479.69;5049948;28;7292;-65
2023/02/08 12:49:18;;;;;;;;;;;;;;;25.96;38.31;95474.19;5030490;28;9182;-64
2023/02/08 12:52:25;;;;;;;;;;;;;;;25.95;38.28;95478.19;5028261;28;7272;-64
2023/02/08 12:55:17;;;;;;;;;;;;;;;25.96;38.21;95468.69;5046965;28;7268;-65
2023/02/08 12:58:31;;;;;;;;;;;;;;;25.95;37.84;95471.91;5039750;28;7344;-65
2023/02/08 13:01:32;;;;;;;;;;;;;;;25.97;37.76;95472.16;4979558;28;7866;-64
2023/02/08 13:04:19;;;;;;;;;;;;;;;25.96;37.74;95463.16;4905280;29;7057;-64
2023/02/08 13:07:24;;;;;;;;;;;;;;;25.97;37.84;95461.91;4897770;29;7720;-64
2023/02/08 13:10:04;;;;;;;;;;;;;;;25.95;38.11;95456.13;4859524;29;7152;-64
2023/02/08 13:13:00;;;;;;;;;;;;;;;25.97;37.50;95458.38;4859283;29;7499;-64
2023/02/08 13:15:38;;;;;;;;;;;;;;;25.96;37.71;95454.91;4858703;29;8976;-65
2023/02/08 13:18:14;;;;;;;;;;;;;;;25.97;37.68;95456.41;4857774;29;9034;-64
2023/02/08 13:20:44;;;;;;;;;;;;;;;25.95;38.44;95450.63;4854205;29;9332;-64
2023/02/08 13:23:47;;;;;;;;;;;;;;;25.96;37.30;95452.13;4854245;29;9083;-64
2023/02/08 13:26:26;;;;;;;;;;;;;;;25.96;37.36;95451.38;4845312;29;9475;-64
2023/02/08 13:28:55;;;;;;;;;;;;;;;25.97;37.91;95448.13;4842046;29;7029;-64
2023/02/08 13:31:31;;;;;;;;;;;;;;;25.97;37.84;95450.88;4859210;29;7977;-64
2023/02/08 13:34:27;;;;;;;;;;;;;;;25.98;37.75;95459.91;4860552;29;7821;-64
2023/02/08 13:37:16;;;;;;;;;;;;;;;25.97;37.55;95453.63;4859158;29;7054;-64
2023/02/08 13:39:45;;;;;;;;;;;;;;;25.98;37.33;95452.41;4938775;28;6855;-64
2023/02/08 13:42:41;;;;;;;;;;;;;;;25.98;38.26;95451.66;4971669;28;7026;-65
2023/02/08 13:45:27;;;;;;;;;;;;;;;25.97;38.10;95452.88;4996956;28;9092;-65
2023/02/08 13:48:10;;;;;;;;;;;;;;;25.98;38.37;95457.16;5025666;28;9920;-65
2023/02/08 13:50:44;;;;;;;;;;;;;;;25.97;38.22;95448.13;5027853;28;7105;-65
2023/02/08 13:53:12;;;;;;;;;;;;;;;25.97;37.70;95445.38;5045517;28;8985;-65
2023/02/08 13:55:52;;;;;;;;;;;;;;;25.97;38.29;95448.13;5044604;28;9383;-64
2023/02/08 13:58:33;;;;;;;;;;;;;;;25.96;37.86;95446.63;5024652;28;9360;-64
2023/02/08 14:01:17;;;;;;;;;;;;;;;25.97;37.70;95450.88;5032790;28;9088;-64
2023/02/08 14:03:43;;;;;;;;;;;;;;;25.96;37.37;95454.91;5051000;28;9031;-64